createdAt,value
2019-01-19T00:00:06.878Z,0.20
2019-01-19T00:01:06.841Z,0.20
2019-01-19T00:02:06.869Z,0.20
2019-01-19T00:03:06.828Z,0.10
2019-01-19T00:04:06.811Z,0.10
2019-01-19T00:05:10.558Z,0.20
2019-01-19T00:06:06.770Z,0.10
2019-01-19T00:07:06.790Z,0.10
2019-01-19T00:08:06.770Z,0.20
2019-01-19T00:09:06.754Z,0.20
2019-01-19T00:10:06.729Z,0.10
2019-01-19T00:11:06.726Z,0.10
2019-01-19T00:12:06.715Z,0.20
2019-01-19T00:13:06.714Z,0.20
2019-01-19T00:14:06.844Z,0.10
2019-01-19T00:15:06.691Z,0.10
2019-01-19T00:16:06.674Z,0.20
2019-01-19T00:17:06.658Z,0.20
2019-01-19T00:18:06.661Z,0.20
2019-01-19T00:19:06.653Z,0.20
2019-01-19T00:20:06.637Z,0.20
2019-01-19T00:21:06.622Z,0.10
2019-01-19T00:22:06.632Z,0.20
2019-01-19T00:23:06.613Z,0.20
2019-01-19T00:24:06.581Z,0.20
2019-01-19T00:25:06.574Z,0.20
2019-01-19T00:26:06.567Z,0.20
2019-01-19T00:27:06.547Z,0.20
2019-01-19T00:28:06.560Z,0.10
2019-01-19T00:29:06.537Z,0.20
2019-01-19T00:30:06.518Z,0.20
2019-01-19T00:31:06.523Z,0.10
2019-01-19T00:33:05.488Z,0.20
2019-01-19T00:34:06.547Z,0.10
2019-01-19T00:35:06.473Z,0.20
2019-01-19T00:36:06.458Z,0.20
2019-01-19T00:37:06.456Z,0.20
2019-01-19T00:38:06.441Z,0.20
2019-01-19T00:39:06.442Z,0.10
2019-01-19T00:40:06.424Z,0.20
2019-01-19T00:41:06.410Z,0.20
2019-01-19T00:42:06.400Z,0.10
2019-01-19T00:43:06.387Z,0.10
2019-01-19T00:44:06.410Z,0.20
2019-01-19T00:45:06.370Z,0.20
2019-01-19T00:46:06.348Z,0.10
2019-01-19T00:47:06.339Z,0.20
2019-01-19T00:48:06.327Z,0.20
2019-01-19T00:50:15.577Z,0.30
2019-01-19T00:51:16.525Z,0.20
2019-01-19T00:52:16.511Z,0.10
2019-01-19T00:53:16.488Z,0.10
2019-01-19T00:54:16.498Z,0.20
2019-01-19T00:55:16.491Z,0.10
2019-01-19T00:56:16.487Z,0.10
2019-01-19T00:57:16.444Z,0.20
2019-01-19T00:58:16.439Z,0.20
2019-01-19T00:59:16.431Z,0.10
2019-01-19T01:00:16.432Z,0.10
2019-01-19T01:01:16.417Z,0.20
2019-01-19T01:02:16.404Z,0.20
2019-01-19T01:03:16.417Z,0.10
2019-01-19T01:04:16.388Z,0.10
2019-01-19T01:05:16.389Z,0.20
2019-01-19T01:06:16.376Z,0.20
2019-01-19T01:07:16.352Z,0.10
2019-01-19T01:08:16.351Z,0.20
2019-01-19T01:09:16.330Z,0.20
2019-01-19T01:10:16.345Z,0.10
2019-01-19T01:11:16.308Z,0.10
2019-01-19T01:12:16.304Z,0.20
2019-01-19T01:13:16.292Z,0.10
2019-01-19T01:14:16.288Z,0.10
2019-01-19T01:15:16.295Z,0.20
2019-01-19T01:16:16.273Z,0.20
2019-01-19T01:17:16.257Z,0.10
2019-01-19T01:18:16.250Z,0.20
2019-01-19T01:19:16.230Z,0.20
2019-01-19T01:20:16.237Z,0.20
2019-01-19T01:21:16.214Z,0.20
2019-01-19T01:22:16.203Z,0.20
2019-01-19T01:23:16.199Z,0.20
2019-01-19T01:24:16.176Z,0.10
2019-01-19T01:25:16.194Z,0.20
2019-01-19T01:26:16.172Z,0.20
2019-01-19T01:27:16.157Z,0.10
2019-01-19T01:28:16.145Z,0.10
2019-01-19T01:29:16.132Z,0.20
2019-01-19T01:30:16.140Z,0.10
2019-01-19T01:31:16.115Z,0.10
2019-01-19T01:32:16.094Z,0.20
2019-01-19T01:33:16.088Z,0.20
2019-01-19T01:34:16.080Z,0.20
2019-01-19T01:35:16.090Z,0.20
2019-01-19T01:36:16.068Z,0.20
2019-01-19T01:37:16.060Z,0.20
2019-01-19T01:38:16.035Z,0.10
2019-01-19T01:39:16.042Z,0.10
2019-01-19T01:40:16.019Z,0.20
2019-01-19T01:41:16.029Z,0.20
2019-01-19T01:42:16.003Z,0.20
2019-01-19T01:43:15.984Z,0.20
2019-01-19T01:44:15.981Z,0.20
2019-01-19T01:45:15.971Z,0.20
2019-01-19T01:46:15.980Z,0.10
2019-01-19T01:47:15.953Z,0.20
2019-01-19T01:48:15.945Z,0.10
2019-01-19T01:49:15.928Z,0.20
2019-01-19T01:50:15.926Z,0.20
2019-01-19T01:51:15.922Z,0.20
2019-01-19T01:52:15.908Z,0.20
2019-01-19T01:53:15.891Z,0.20
2019-01-19T01:54:15.879Z,0.10
2019-01-19T01:55:15.872Z,0.10
2019-01-19T01:56:15.877Z,0.10
2019-01-19T01:57:15.841Z,0.20
2019-01-19T01:58:15.853Z,0.20
2019-01-19T01:59:15.826Z,0.10
2019-01-19T02:00:15.814Z,0.10
2019-01-19T02:01:16.769Z,0.20
2019-01-19T02:02:15.795Z,0.20
2019-01-19T02:03:15.781Z,0.10
2019-01-19T02:04:15.806Z,0.20
2019-01-19T02:05:15.765Z,0.20
2019-01-19T02:06:15.754Z,0.20
2019-01-19T02:07:15.755Z,0.10
2019-01-19T02:08:15.729Z,0.20
2019-01-19T02:09:15.715Z,0.10
2019-01-19T02:10:15.703Z,0.10
2019-01-19T02:11:15.696Z,0.10
2019-01-19T02:12:15.701Z,0.20
2019-01-19T02:13:15.684Z,0.20
2019-01-19T02:14:15.682Z,0.20
2019-01-19T02:15:15.659Z,0.20
2019-01-19T02:16:15.648Z,0.20
2019-01-19T02:17:15.653Z,0.10
2019-01-19T02:18:15.621Z,0.10
2019-01-19T02:19:15.617Z,0.20
2019-01-19T02:20:15.601Z,0.20
2019-01-19T02:21:15.585Z,0.20
2019-01-19T02:22:15.598Z,0.10
2019-01-19T02:23:15.566Z,0.20
2019-01-19T02:24:15.567Z,0.10
2019-01-19T02:25:15.545Z,0.20
2019-01-19T02:26:15.533Z,0.10
2019-01-19T02:27:15.551Z,0.20
2019-01-19T02:28:15.510Z,0.10
2019-01-19T02:29:15.500Z,0.10
2019-01-19T02:30:15.499Z,0.20
2019-01-19T02:31:15.482Z,0.20
2019-01-19T02:32:15.489Z,0.20
2019-01-19T02:33:15.459Z,0.10
2019-01-19T02:34:15.457Z,0.20
2019-01-19T02:35:15.446Z,0.10
2019-01-19T02:36:15.444Z,0.10
2019-01-19T02:37:15.444Z,0.10
2019-01-19T02:38:15.428Z,0.20
2019-01-19T02:39:15.407Z,0.20
2019-01-19T02:40:15.398Z,0.10
2019-01-19T02:41:15.389Z,0.10
2019-01-19T02:42:15.386Z,0.20
2019-01-19T02:43:15.358Z,0.10
2019-01-19T02:44:15.348Z,0.10
2019-01-19T02:45:15.333Z,0.20
2019-01-19T02:46:15.340Z,0.20
2019-01-19T02:47:15.335Z,0.10
2019-01-19T02:48:15.312Z,0.10
2019-01-19T02:49:15.302Z,0.20
2019-01-19T02:51:24.489Z,0.30
2019-01-19T02:52:25.497Z,0.20
2019-01-19T02:53:25.468Z,0.10
2019-01-19T02:54:25.458Z,0.20
2019-01-19T02:55:25.450Z,0.20
2019-01-19T02:56:25.425Z,0.10
2019-01-19T02:57:25.435Z,0.20
2019-01-19T02:58:25.418Z,0.20
2019-01-19T02:59:25.416Z,0.10
2019-01-19T03:00:25.385Z,0.10
2019-01-19T03:01:25.387Z,0.20
2019-01-19T03:02:25.387Z,0.20
2019-01-19T03:03:25.377Z,0.10
2019-01-19T03:04:25.345Z,0.10
2019-01-19T03:05:25.346Z,0.20
2019-01-19T03:06:25.331Z,0.10
2019-01-19T03:07:25.344Z,0.10
2019-01-19T03:08:25.309Z,0.20
2019-01-19T03:09:25.301Z,0.20
2019-01-19T03:10:25.292Z,0.20
2019-01-19T03:11:25.274Z,0.10
2019-01-19T03:12:25.280Z,0.20
2019-01-19T03:13:25.259Z,0.20
2019-01-19T03:14:25.243Z,0.10
2019-01-19T03:15:25.237Z,0.10
2019-01-19T03:16:25.230Z,0.20
2019-01-19T03:17:25.232Z,0.20
2019-01-19T03:18:25.208Z,0.20
2019-01-19T03:19:25.197Z,0.10
2019-01-19T03:20:25.182Z,0.20
2019-01-19T03:21:25.175Z,0.10
2019-01-19T03:22:25.178Z,0.10
2019-01-19T03:23:25.156Z,0.20
2019-01-19T03:24:25.178Z,0.20
2019-01-19T03:25:25.131Z,0.10
2019-01-19T03:26:25.118Z,0.10
2019-01-19T03:27:25.141Z,0.20
2019-01-19T03:28:25.118Z,0.20
2019-01-19T03:29:25.094Z,0.10
2019-01-19T03:30:25.075Z,0.10
2019-01-19T03:31:25.066Z,0.20
2019-01-19T03:32:25.079Z,0.20
2019-01-19T03:33:25.050Z,0.20
2019-01-19T03:34:25.044Z,0.10
2019-01-19T03:35:25.018Z,0.20
2019-01-19T03:36:25.013Z,0.20
2019-01-19T03:37:25.007Z,0.10
2019-01-19T03:38:24.998Z,0.10
2019-01-19T03:39:24.995Z,0.20
2019-01-19T03:40:24.975Z,0.10
2019-01-19T03:41:24.967Z,0.20
2019-01-19T03:42:24.948Z,0.20
2019-01-19T03:43:24.972Z,0.20
2019-01-19T03:44:24.958Z,0.10
2019-01-19T03:45:24.924Z,0.10
2019-01-19T03:46:24.917Z,0.20
2019-01-19T03:47:24.914Z,0.10
2019-01-19T03:48:25.739Z,0.20
2019-01-19T03:49:24.900Z,0.10
2019-01-19T03:50:24.881Z,0.20
2019-01-19T03:51:24.874Z,0.20
2019-01-19T03:52:24.856Z,0.20
2019-01-19T03:53:24.849Z,0.20
2019-01-19T03:54:24.850Z,0.20
2019-01-19T03:55:24.833Z,0.10
2019-01-19T03:56:24.822Z,0.10
2019-01-19T03:57:24.818Z,0.20
2019-01-19T03:58:24.802Z,0.20
2019-01-19T03:59:24.806Z,0.10
2019-01-19T04:00:24.785Z,0.10
2019-01-19T04:01:24.762Z,0.20
2019-01-19T04:02:24.760Z,0.20
2019-01-19T04:03:26.717Z,0.20
2019-01-19T04:04:24.755Z,0.10
2019-01-19T04:05:24.737Z,0.20
2019-01-19T04:06:24.726Z,0.20
2019-01-19T04:07:24.713Z,0.10
2019-01-19T04:08:24.697Z,0.20
2019-01-19T04:09:24.718Z,0.20
2019-01-19T04:10:24.688Z,0.20
2019-01-19T04:11:24.669Z,0.20
2019-01-19T04:12:24.673Z,0.20
2019-01-19T04:13:24.656Z,0.20
2019-01-19T04:14:24.663Z,0.20
2019-01-19T04:15:24.631Z,0.20
2019-01-19T04:16:24.625Z,0.20
2019-01-19T04:17:24.616Z,0.20
2019-01-19T04:18:24.596Z,0.20
2019-01-19T04:19:24.615Z,0.20
2019-01-19T04:20:24.596Z,0.20
2019-01-19T04:21:24.563Z,0.20
2019-01-19T04:22:24.561Z,0.10
2019-01-19T04:23:24.558Z,0.20
2019-01-19T04:24:24.551Z,0.20
2019-01-19T04:25:24.536Z,0.20
2019-01-19T04:26:24.515Z,0.10
2019-01-19T04:27:24.503Z,0.20
2019-01-19T04:28:24.501Z,0.10
2019-01-19T04:29:24.514Z,0.20
2019-01-19T04:30:24.484Z,0.10
2019-01-19T04:31:24.469Z,0.20
2019-01-19T04:32:24.457Z,0.10
2019-01-19T04:33:24.447Z,0.10
2019-01-19T04:34:24.450Z,0.20
2019-01-19T04:35:24.438Z,0.10
2019-01-19T04:36:24.424Z,0.10
2019-01-19T04:37:24.400Z,0.10
2019-01-19T04:38:24.414Z,0.20
2019-01-19T04:39:24.392Z,0.10
2019-01-19T04:40:24.375Z,0.10
2019-01-19T04:41:24.369Z,0.10
2019-01-19T04:42:24.357Z,0.20
2019-01-19T04:43:24.337Z,0.10
2019-01-19T04:44:24.357Z,0.10
2019-01-19T04:45:24.335Z,0.20
2019-01-19T04:46:24.320Z,0.20
2019-01-19T04:47:24.314Z,0.10
2019-01-19T04:48:24.289Z,0.10
2019-01-19T04:49:24.317Z,0.20
2019-01-19T04:50:24.286Z,0.20
2019-01-19T04:52:33.475Z,0.30
2019-01-19T04:53:34.454Z,0.20
2019-01-19T04:54:34.470Z,0.10
2019-01-19T04:55:34.444Z,0.20
2019-01-19T04:56:34.435Z,0.10
2019-01-19T04:57:34.413Z,0.10
2019-01-19T04:58:34.416Z,0.10
2019-01-19T04:59:34.428Z,0.10
2019-01-19T05:00:34.400Z,0.20
2019-01-19T05:01:34.377Z,0.10
2019-01-19T05:02:34.369Z,0.10
2019-01-19T05:03:34.353Z,0.20
2019-01-19T05:04:34.371Z,0.20
2019-01-19T05:05:34.341Z,0.10
2019-01-19T05:06:34.334Z,0.10
2019-01-19T05:07:34.319Z,0.20
2019-01-19T05:08:34.308Z,0.20
2019-01-19T05:09:34.313Z,0.10
2019-01-19T05:10:34.284Z,0.10
2019-01-19T05:11:34.266Z,0.20
2019-01-19T05:12:36.162Z,0.10
2019-01-19T05:13:34.248Z,0.20
2019-01-19T05:14:34.271Z,0.10
2019-01-19T05:15:34.236Z,0.20
2019-01-19T05:16:34.228Z,0.20
2019-01-19T05:17:34.205Z,0.10
2019-01-19T05:18:34.203Z,0.20
2019-01-19T05:19:34.214Z,0.20
2019-01-19T05:20:34.184Z,0.20
2019-01-19T05:21:34.166Z,0.20
2019-01-19T05:22:34.169Z,0.20
2019-01-19T05:23:34.155Z,0.20
2019-01-19T05:24:34.158Z,0.20
2019-01-19T05:25:34.146Z,0.10
2019-01-19T05:26:34.122Z,0.20
2019-01-19T05:27:34.113Z,0.10
2019-01-19T05:28:34.096Z,0.10
2019-01-19T05:29:34.106Z,0.10
2019-01-19T05:30:34.073Z,0.20
2019-01-19T05:31:34.075Z,0.10
2019-01-19T05:32:34.060Z,0.10
2019-01-19T05:33:34.091Z,0.20
2019-01-19T05:34:34.042Z,0.20
2019-01-19T05:35:34.075Z,0.20
2019-01-19T05:36:38.435Z,0.10
2019-01-19T05:37:34.020Z,0.10
2019-01-19T05:38:34.004Z,0.20
2019-01-19T05:39:33.989Z,0.10
2019-01-19T05:40:33.986Z,0.10
2019-01-19T05:41:33.972Z,0.20
2019-01-19T05:42:33.967Z,0.10
2019-01-19T05:43:33.939Z,0.10
2019-01-19T05:44:33.941Z,0.10
2019-01-19T05:45:33.949Z,0.20
2019-01-19T05:46:33.921Z,0.20
2019-01-19T05:47:33.906Z,0.10
2019-01-19T05:48:33.903Z,0.10
2019-01-19T05:49:33.894Z,0.20
2019-01-19T05:50:33.907Z,0.20
2019-01-19T05:51:33.883Z,0.10
2019-01-19T05:52:33.864Z,0.10
2019-01-19T05:53:33.855Z,0.20
2019-01-19T05:54:33.837Z,0.10
2019-01-19T05:55:33.847Z,0.10
2019-01-19T05:56:33.833Z,0.10
2019-01-19T05:57:33.814Z,0.20
2019-01-19T05:58:33.812Z,0.10
2019-01-19T05:59:33.783Z,0.20
2019-01-19T06:00:33.789Z,0.20
2019-01-19T06:01:33.784Z,0.20
2019-01-19T06:02:33.794Z,0.20
2019-01-19T06:03:33.757Z,0.10
2019-01-19T06:04:33.743Z,0.20
2019-01-19T06:05:33.728Z,0.20
2019-01-19T06:06:33.736Z,1.90
2019-01-19T06:07:33.716Z,4.80
2019-01-19T06:08:33.701Z,4.60
2019-01-19T06:09:33.699Z,4.90
2019-01-19T06:10:33.698Z,5.10
2019-01-19T06:11:33.689Z,4.70
2019-01-19T06:12:33.686Z,4.90
2019-01-19T06:13:33.653Z,5.00
2019-01-19T06:14:33.638Z,4.50
2019-01-19T06:15:33.652Z,4.90
2019-01-19T06:16:33.623Z,4.80
2019-01-19T06:17:33.608Z,4.80
2019-01-19T06:18:33.613Z,4.90
2019-01-19T06:19:33.617Z,4.60
2019-01-19T06:20:33.613Z,4.80
2019-01-19T06:21:33.625Z,4.70
2019-01-19T06:22:33.566Z,5.00
2019-01-19T06:23:33.564Z,4.90
2019-01-19T06:24:33.540Z,4.70
2019-01-19T06:25:33.556Z,5.10
2019-01-19T06:26:33.531Z,4.80
2019-01-19T06:27:33.510Z,4.70
2019-01-19T06:28:33.504Z,4.90
2019-01-19T06:29:33.503Z,5.20
2019-01-19T06:30:33.510Z,4.70
2019-01-19T06:31:33.478Z,5.40
2019-01-19T06:32:33.469Z,4.80
2019-01-19T06:33:33.457Z,4.90
2019-01-19T06:34:33.455Z,4.80
2019-01-19T06:35:33.452Z,5.10
2019-01-19T06:36:33.429Z,4.70
2019-01-19T06:37:33.423Z,5.00
2019-01-19T06:38:33.419Z,5.30
2019-01-19T06:39:33.405Z,4.80
2019-01-19T06:40:33.414Z,4.80
2019-01-19T06:41:33.387Z,5.00
2019-01-19T06:42:33.363Z,4.80
2019-01-19T06:43:33.364Z,5.20
2019-01-19T06:44:33.345Z,4.70
2019-01-19T06:45:33.351Z,5.20
2019-01-19T06:46:33.328Z,5.10
2019-01-19T06:47:33.320Z,5.30
2019-01-19T06:48:33.307Z,4.50
2019-01-19T06:49:33.296Z,5.10
2019-01-19T06:50:33.297Z,5.40
2019-01-19T06:51:33.270Z,4.90
2019-01-19T06:53:42.479Z,4.60
2019-01-19T06:54:43.450Z,5.10
2019-01-19T06:55:43.473Z,4.70
2019-01-19T06:56:43.438Z,5.60
2019-01-19T06:57:43.429Z,5.70
2019-01-19T06:58:43.418Z,5.40
2019-01-19T06:59:44.218Z,5.00
2019-01-19T07:00:43.419Z,4.90
2019-01-19T07:01:43.381Z,5.00
2019-01-19T07:02:43.378Z,4.90
2019-01-19T07:03:43.373Z,5.60
2019-01-19T07:04:43.360Z,5.20
2019-01-19T07:05:43.361Z,4.90
2019-01-19T07:06:43.338Z,5.60
2019-01-19T07:07:43.336Z,5.20
2019-01-19T07:08:43.315Z,5.50
2019-01-19T07:09:43.296Z,5.20
2019-01-19T07:10:43.304Z,5.20
2019-01-19T07:11:43.295Z,5.10
2019-01-19T07:12:43.272Z,5.40
2019-01-19T07:13:43.264Z,5.10
2019-01-19T07:14:43.262Z,5.50
2019-01-19T07:15:43.266Z,5.50
2019-01-19T07:16:43.246Z,5.60
2019-01-19T07:17:43.221Z,5.60
2019-01-19T07:18:43.212Z,5.80
2019-01-19T07:19:43.201Z,5.40
2019-01-19T07:20:43.211Z,5.90
2019-01-19T07:21:43.200Z,5.50
2019-01-19T07:22:43.189Z,5.80
2019-01-19T07:23:43.173Z,5.50
2019-01-19T07:24:43.158Z,5.40
2019-01-19T07:25:43.493Z,5.30
2019-01-19T07:26:43.136Z,5.70
2019-01-19T07:27:43.132Z,5.30
2019-01-19T07:28:43.117Z,5.60
2019-01-19T07:29:43.126Z,5.80
2019-01-19T07:30:43.185Z,5.80
2019-01-19T07:31:43.102Z,5.00
2019-01-19T07:32:43.083Z,5.10
2019-01-19T07:33:43.070Z,5.40
2019-01-19T07:34:43.065Z,5.00
2019-01-19T07:35:43.071Z,5.60
2019-01-19T07:36:43.077Z,5.60
2019-01-19T07:37:43.036Z,5.20
2019-01-19T07:38:43.010Z,5.40
2019-01-19T07:39:43.021Z,5.50
2019-01-19T07:40:42.999Z,5.10
2019-01-19T07:41:42.989Z,5.20
2019-01-19T07:42:42.980Z,5.10
2019-01-19T07:43:42.970Z,5.10
2019-01-19T07:44:42.961Z,5.20
2019-01-19T07:45:42.950Z,5.40
2019-01-19T07:46:42.959Z,5.40
2019-01-19T07:47:42.946Z,4.90
2019-01-19T07:48:42.918Z,5.40
2019-01-19T07:49:42.970Z,5.40
2019-01-19T07:50:42.905Z,5.50
2019-01-19T07:51:42.912Z,5.50
2019-01-19T07:52:42.875Z,5.40
2019-01-19T07:53:42.879Z,5.70
2019-01-19T07:54:42.873Z,5.60
2019-01-19T07:55:42.850Z,5.60
2019-01-19T07:56:42.859Z,5.90
2019-01-19T07:57:42.839Z,5.90
2019-01-19T07:58:42.811Z,5.10
2019-01-19T07:59:42.805Z,5.50
2019-01-19T08:00:42.816Z,5.90
2019-01-19T08:01:42.812Z,5.90
2019-01-19T08:02:42.774Z,5.60
2019-01-19T08:03:42.771Z,5.70
2019-01-19T08:04:42.771Z,5.50
2019-01-19T08:05:42.746Z,6.20
2019-01-19T08:06:42.767Z,5.30
2019-01-19T08:07:42.731Z,5.40
2019-01-19T08:08:42.726Z,6.10
2019-01-19T08:09:42.717Z,6.10
2019-01-19T08:10:42.701Z,5.40
2019-01-19T08:11:42.717Z,6.00
2019-01-19T08:12:42.711Z,5.80
2019-01-19T08:13:42.675Z,6.10
2019-01-19T08:14:42.667Z,5.90
2019-01-19T08:15:42.669Z,6.00
2019-01-19T08:16:42.648Z,5.80
2019-01-19T08:17:42.636Z,6.20
2019-01-19T08:18:42.630Z,5.70
2019-01-19T08:19:42.607Z,5.90
2019-01-19T08:20:42.610Z,6.00
2019-01-19T08:21:42.613Z,6.70
2019-01-19T08:22:42.572Z,6.90
2019-01-19T08:23:42.574Z,5.50
2019-01-19T08:24:42.563Z,5.60
2019-01-19T08:25:42.561Z,5.60
2019-01-19T08:26:42.567Z,6.00
2019-01-19T08:27:42.534Z,6.20
2019-01-19T08:28:43.199Z,6.00
2019-01-19T08:29:42.501Z,6.10
2019-01-19T08:30:42.493Z,5.40
2019-01-19T08:31:42.492Z,5.90
2019-01-19T08:32:42.469Z,6.20
2019-01-19T08:33:42.457Z,6.30
2019-01-19T08:34:42.458Z,6.50
2019-01-19T08:35:42.431Z,6.00
2019-01-19T08:36:42.443Z,7.10
2019-01-19T08:37:42.441Z,6.70
2019-01-19T08:38:42.405Z,6.60
2019-01-19T08:39:42.387Z,6.10
2019-01-19T08:40:42.386Z,5.70
2019-01-19T08:41:42.392Z,6.00
2019-01-19T08:42:42.364Z,5.20
2019-01-19T08:43:42.360Z,5.90
2019-01-19T08:44:42.353Z,6.10
2019-01-19T08:45:42.325Z,5.40
2019-01-19T08:46:42.338Z,5.60
2019-01-19T08:47:42.309Z,5.90
2019-01-19T08:48:42.336Z,5.70
2019-01-19T08:49:42.287Z,5.20
2019-01-19T08:50:42.278Z,5.50
2019-01-19T08:51:42.279Z,5.80
2019-01-19T08:52:42.276Z,6.00
2019-01-19T08:54:51.478Z,6.30
2019-01-19T08:55:52.475Z,5.80
2019-01-19T08:56:52.465Z,5.20
2019-01-19T08:57:52.432Z,6.40
2019-01-19T08:58:52.435Z,6.00
2019-01-19T08:59:52.420Z,5.80
2019-01-19T09:00:52.404Z,5.50
2019-01-19T09:01:52.415Z,5.00
2019-01-19T09:02:52.396Z,5.30
2019-01-19T09:03:52.381Z,4.90
2019-01-19T09:04:52.384Z,5.40
2019-01-19T09:05:52.347Z,5.20
2019-01-19T09:06:52.365Z,5.10
2019-01-19T09:07:52.338Z,4.70
2019-01-19T09:08:52.316Z,5.60
2019-01-19T09:09:52.311Z,4.90
2019-01-19T09:10:52.330Z,5.00
2019-01-19T09:11:52.297Z,4.80
2019-01-19T09:12:52.280Z,5.20
2019-01-19T09:13:52.260Z,5.40
2019-01-19T09:14:52.251Z,4.90
2019-01-19T09:15:52.245Z,4.70
2019-01-19T09:16:52.244Z,4.70
2019-01-19T09:17:52.224Z,5.00
2019-01-19T09:18:52.219Z,4.60
2019-01-19T09:19:52.190Z,4.70
2019-01-19T09:20:52.181Z,4.70
2019-01-19T09:21:52.189Z,4.60
2019-01-19T09:22:52.155Z,4.90
2019-01-19T09:23:52.149Z,4.80
2019-01-19T09:24:52.141Z,5.00
2019-01-19T09:25:52.160Z,4.90
2019-01-19T09:26:52.126Z,4.60
2019-01-19T09:27:52.107Z,4.80
2019-01-19T09:28:52.087Z,5.00
2019-01-19T09:29:52.088Z,4.70
2019-01-19T09:30:52.070Z,4.60
2019-01-19T09:31:52.077Z,4.70
2019-01-19T09:32:52.053Z,4.80
2019-01-19T09:33:52.047Z,4.80
2019-01-19T09:34:52.024Z,5.00
2019-01-19T09:35:52.016Z,4.80
2019-01-19T09:36:52.019Z,4.80
2019-01-19T09:37:52.020Z,5.10
2019-01-19T09:38:51.983Z,4.90
2019-01-19T09:39:51.973Z,4.90
2019-01-19T09:40:51.980Z,5.30
2019-01-19T09:41:51.945Z,4.90
2019-01-19T09:42:51.976Z,5.10
2019-01-19T09:43:51.927Z,5.20
2019-01-19T09:44:51.918Z,5.60
2019-01-19T09:45:51.901Z,4.70
2019-01-19T09:46:51.911Z,5.60
2019-01-19T09:47:51.897Z,4.70
2019-01-19T09:48:51.884Z,4.80
2019-01-19T09:49:51.863Z,4.40
2019-01-19T09:50:51.843Z,5.00
2019-01-19T09:51:51.837Z,4.80
2019-01-19T09:52:51.835Z,4.50
2019-01-19T09:53:51.813Z,4.50
2019-01-19T09:54:51.800Z,5.00
2019-01-19T09:55:51.793Z,4.70
2019-01-19T09:56:51.778Z,4.60
2019-01-19T09:57:51.795Z,4.50
2019-01-19T09:58:51.774Z,5.00
2019-01-19T09:59:51.744Z,4.70
2019-01-19T10:00:51.745Z,4.70
2019-01-19T10:01:51.727Z,4.50
2019-01-19T10:02:51.724Z,4.80
2019-01-19T10:03:51.716Z,4.70
2019-01-19T10:04:51.694Z,4.70
2019-01-19T10:05:51.735Z,4.80
2019-01-19T10:06:51.673Z,4.40
2019-01-19T10:07:51.681Z,4.60
2019-01-19T10:08:51.650Z,4.30
2019-01-19T10:09:51.640Z,4.90
2019-01-19T10:10:51.625Z,5.00
2019-01-19T10:11:51.614Z,11.90
2019-01-19T10:12:51.633Z,4.40
2019-01-19T10:13:51.599Z,5.90
2019-01-19T10:14:51.577Z,6.10
2019-01-19T10:15:51.567Z,5.10
2019-01-19T10:16:51.576Z,9.60
2019-01-19T10:17:51.567Z,9.70
2019-01-19T10:18:51.541Z,7.50
2019-01-19T10:19:51.540Z,6.70
2019-01-19T10:20:51.526Z,7.00
2019-01-19T10:21:51.504Z,5.80
2019-01-19T10:22:51.518Z,4.80
2019-01-19T10:23:51.483Z,4.80
2019-01-19T10:24:51.482Z,4.80
2019-01-19T10:25:51.469Z,4.90
2019-01-19T10:26:51.474Z,4.70
2019-01-19T10:27:51.462Z,6.10
2019-01-19T10:28:51.444Z,4.60
2019-01-19T10:29:51.426Z,5.40
2019-01-19T10:30:51.595Z,5.90
2019-01-19T10:31:51.395Z,5.10
2019-01-19T10:32:51.401Z,5.30
2019-01-19T10:33:51.383Z,4.80
2019-01-19T10:34:51.374Z,4.60
2019-01-19T10:35:51.365Z,5.30
2019-01-19T10:36:51.351Z,5.30
2019-01-19T10:37:56.090Z,5.00
2019-01-19T10:38:51.690Z,5.30
2019-01-19T10:39:51.321Z,7.30
2019-01-19T10:40:51.314Z,6.20
2019-01-19T10:41:51.287Z,7.70
2019-01-19T10:42:51.307Z,6.00
2019-01-19T10:43:51.273Z,4.50
2019-01-19T10:44:51.265Z,3.70
2019-01-19T10:45:51.268Z,3.70
2019-01-19T10:46:51.262Z,3.60
2019-01-19T10:47:51.250Z,4.50
2019-01-19T10:48:51.235Z,3.90
2019-01-19T10:49:51.217Z,3.50
2019-01-19T10:50:51.197Z,3.60
2019-01-19T10:51:51.190Z,3.70
2019-01-19T10:52:51.258Z,3.90
2019-01-19T10:53:51.180Z,3.70
2019-01-19T10:56:00.356Z,3.40
2019-01-19T10:57:01.347Z,3.60
2019-01-19T10:58:01.339Z,3.40
2019-01-19T10:59:01.317Z,3.70
2019-01-19T11:00:01.311Z,3.50
2019-01-19T11:01:01.299Z,3.80
2019-01-19T11:02:02.561Z,3.90
2019-01-19T11:03:01.293Z,4.00
2019-01-19T11:04:01.256Z,3.50
2019-01-19T11:05:01.257Z,3.40
2019-01-19T11:06:01.245Z,4.20
2019-01-19T11:07:01.230Z,4.20
2019-01-19T11:08:03.893Z,3.50
2019-01-19T11:09:01.206Z,3.60
2019-01-19T11:10:01.205Z,3.80
2019-01-19T11:11:01.196Z,4.90
2019-01-19T11:12:01.167Z,5.10
2019-01-19T11:13:01.171Z,4.80
2019-01-19T11:14:01.162Z,4.10
2019-01-19T11:15:01.145Z,3.90
2019-01-19T11:16:01.137Z,4.10
2019-01-19T11:17:01.126Z,3.50
2019-01-19T11:18:01.124Z,3.70
2019-01-19T11:19:01.104Z,3.60
2019-01-19T11:20:01.089Z,3.70
2019-01-19T11:21:01.080Z,3.40
2019-01-19T11:22:01.074Z,3.30
2019-01-19T11:23:01.082Z,3.90
2019-01-19T11:24:01.056Z,3.60
2019-01-19T11:25:01.054Z,3.80
2019-01-19T11:26:01.028Z,5.10
2019-01-19T11:27:01.030Z,5.40
2019-01-19T11:28:01.012Z,4.10
2019-01-19T11:29:00.998Z,4.70
2019-01-19T11:30:00.981Z,3.80
2019-01-19T11:31:00.978Z,4.10
2019-01-19T11:32:00.956Z,4.30
2019-01-19T11:33:00.949Z,3.90
2019-01-19T11:34:00.963Z,4.10
2019-01-19T11:35:00.922Z,4.70
2019-01-19T11:36:00.921Z,4.30
2019-01-19T11:37:00.898Z,4.40
2019-01-19T11:38:00.893Z,4.30
2019-01-19T11:39:00.894Z,4.10
2019-01-19T11:40:00.901Z,4.40
2019-01-19T11:41:00.855Z,4.50
2019-01-19T11:42:00.867Z,3.70
2019-01-19T11:43:00.857Z,4.40
2019-01-19T11:44:00.853Z,4.20
2019-01-19T11:45:00.819Z,3.40
2019-01-19T11:46:00.813Z,4.00
2019-01-19T11:47:00.802Z,3.40
2019-01-19T11:48:00.792Z,3.30
2019-01-19T11:49:00.801Z,3.70
2019-01-19T11:50:00.768Z,3.60
2019-01-19T11:51:00.755Z,3.90
2019-01-19T11:52:00.742Z,3.30
2019-01-19T11:53:00.737Z,3.50
2019-01-19T11:54:00.755Z,3.90
2019-01-19T11:55:00.722Z,3.40
2019-01-19T11:56:00.701Z,4.20
2019-01-19T11:57:00.695Z,3.70
2019-01-19T11:58:00.705Z,3.80
2019-01-19T11:59:00.691Z,3.60
2019-01-19T12:00:00.677Z,4.30
2019-01-19T12:01:00.640Z,3.70
2019-01-19T12:02:00.629Z,3.50
2019-01-19T12:03:00.613Z,3.60
2019-01-19T12:04:00.653Z,3.20
2019-01-19T12:05:00.613Z,4.50
2019-01-19T12:06:00.612Z,3.30
2019-01-19T12:07:00.580Z,3.30
2019-01-19T12:08:00.580Z,3.30
2019-01-19T12:09:00.586Z,3.50
2019-01-19T12:10:00.555Z,4.00
2019-01-19T12:11:00.540Z,3.70
2019-01-19T12:12:00.541Z,3.80
2019-01-19T12:13:00.514Z,4.20
2019-01-19T12:14:00.682Z,3.20
2019-01-19T12:15:00.499Z,3.60
2019-01-19T12:16:00.474Z,3.50
2019-01-19T12:17:00.476Z,3.90
2019-01-19T12:18:00.466Z,3.80
2019-01-19T12:19:00.472Z,4.60
2019-01-19T12:20:00.446Z,4.00
2019-01-19T12:21:00.428Z,3.90
2019-01-19T12:22:00.425Z,4.40
2019-01-19T12:23:00.411Z,3.40
2019-01-19T12:24:00.410Z,3.50
2019-01-19T12:25:00.412Z,4.20
2019-01-19T12:26:01.120Z,3.70
2019-01-19T12:27:00.367Z,4.00
2019-01-19T12:28:00.349Z,3.80
2019-01-19T12:29:00.359Z,3.70
2019-01-19T12:30:00.341Z,3.80
2019-01-19T12:31:00.323Z,4.20
2019-01-19T12:32:00.307Z,3.90
2019-01-19T12:33:00.318Z,3.60
2019-01-19T12:34:00.305Z,3.60
2019-01-19T12:35:00.295Z,3.70
2019-01-19T12:36:00.265Z,3.20
2019-01-19T12:37:00.268Z,3.80
2019-01-19T12:38:00.255Z,3.30
2019-01-19T12:39:00.248Z,3.30
2019-01-19T12:40:00.228Z,3.50
2019-01-19T12:41:00.221Z,3.60
2019-01-19T12:42:00.193Z,3.80
2019-01-19T12:43:00.186Z,3.40
2019-01-19T12:44:00.195Z,4.00
2019-01-19T12:45:00.183Z,3.60
2019-01-19T12:46:00.158Z,4.00
2019-01-19T12:47:00.154Z,3.90
2019-01-19T12:48:00.150Z,3.20
2019-01-19T12:49:00.137Z,3.50
2019-01-19T12:50:00.241Z,4.00
2019-01-19T12:51:00.105Z,3.80
2019-01-19T12:52:00.100Z,4.10
2019-01-19T12:53:00.081Z,3.90
2019-01-19T12:54:00.084Z,4.40
2019-01-19T12:55:00.095Z,3.90
2019-01-19T12:57:09.270Z,3.20
2019-01-19T12:58:10.260Z,3.80
2019-01-19T12:59:10.267Z,3.40
2019-01-19T13:00:10.238Z,3.60
2019-01-19T13:01:10.213Z,4.10
2019-01-19T13:02:10.204Z,4.30
2019-01-19T13:03:10.197Z,4.10
2019-01-19T13:04:10.200Z,4.20
2019-01-19T13:05:10.181Z,5.60
2019-01-19T13:06:10.162Z,5.30
2019-01-19T13:07:10.157Z,4.80
2019-01-19T13:08:10.146Z,4.90
2019-01-19T13:09:12.693Z,3.90
2019-01-19T13:10:10.123Z,5.00
2019-01-19T13:11:10.124Z,4.30
2019-01-19T13:12:10.107Z,3.90
2019-01-19T13:13:10.100Z,3.80
2019-01-19T13:14:10.103Z,3.80
2019-01-19T13:15:10.075Z,3.70
2019-01-19T13:16:10.050Z,3.40
2019-01-19T13:17:10.047Z,4.00
2019-01-19T13:18:10.053Z,4.80
2019-01-19T13:19:10.027Z,3.80
2019-01-19T13:20:10.022Z,3.50
2019-01-19T13:21:10.004Z,3.60
2019-01-19T13:22:10.010Z,4.20
2019-01-19T13:23:09.983Z,4.70
2019-01-19T13:24:09.969Z,4.00
2019-01-19T13:25:10.010Z,3.90
2019-01-19T13:26:09.961Z,4.80
2019-01-19T13:27:09.947Z,4.70